createdAt,value
2023-01-29T00:02:08.324Z,6.35
2023-01-29T00:04:37.674Z,6.05
2023-01-29T00:07:05.497Z,6.45
2023-01-29T00:09:33.363Z,5.80
2023-01-29T00:12:01.262Z,5.95
2023-01-29T20:06:05.679Z,12.25
2023-01-29T20:08:34.474Z,10.23
2023-01-29T20:11:02.609Z,12.02
2023-01-29T20:13:31.339Z,13.27
2023-01-29T20:16:02.821Z,12.20
2023-01-29T20:18:31.088Z,13.80
2023-01-29T20:20:59.083Z,13.82
2023-01-29T20:23:37.655Z,14.43
2023-01-29T20:26:07.228Z,14.32
2023-01-29T20:28:35.722Z,14.30
2023-01-29T20:31:04.098Z,12.98
2023-01-29T20:33:33.476Z,14.15
2023-01-29T20:36:03.336Z,12.77
2023-01-29T20:38:34.600Z,13.85
2023-01-29T20:41:06.784Z,12.30
2023-01-29T20:43:35.544Z,14.02
2023-01-29T20:46:03.823Z,15.38
2023-01-29T20:48:32.401Z,13.95
2023-01-29T20:51:05.435Z,13.48
2023-01-29T20:53:35.133Z,13.70
2023-01-29T20:56:04.782Z,14.93
2023-01-29T20:58:33.462Z,21.83
2023-01-29T21:01:01.431Z,15.55
2023-01-29T21:03:29.396Z,17.63
2023-01-29T21:05:59.002Z,17.77
2023-01-29T21:08:26.890Z,23.83
2023-01-29T21:10:56.167Z,19.95
2023-01-29T21:13:24.100Z,21.50
2023-01-29T21:15:52.224Z,25.27
2023-01-29T21:18:20.167Z,23.27
2023-01-29T21:20:49.898Z,22.33
2023-01-29T21:23:17.763Z,23.45
2023-01-29T21:25:45.712Z,23.42
2023-01-29T21:28:16.251Z,26.10
2023-01-29T21:30:44.694Z,29.98
2023-01-29T21:33:12.572Z,25.58
2023-01-29T21:35:40.443Z,25.02
2023-01-29T21:38:08.305Z,24.70
2023-01-29T21:40:36.217Z,23.90
2023-01-29T21:43:13.168Z,31.55
2023-01-29T21:45:42.712Z,27.10
2023-01-29T21:48:11.455Z,29.40
2023-01-29T21:50:39.821Z,30.98
2023-01-29T21:53:07.796Z,31.15
2023-01-29T21:55:35.735Z,30.48
2023-01-29T21:58:04.268Z,31.63
2023-01-29T22:00:32.210Z,32.80
2023-01-29T22:03:01.463Z,30.10
2023-01-29T22:05:30.084Z,31.85
2023-01-29T22:07:57.966Z,31.27
2023-01-29T22:10:26.023Z,34.10
2023-01-29T22:12:54.107Z,28.85
2023-01-29T22:15:23.720Z,33.80
2023-01-29T22:17:52.169Z,34.25
2023-01-29T22:20:29.415Z,34.92
2023-01-29T22:22:59.434Z,32.03
2023-01-29T22:25:27.652Z,36.28
2023-01-29T22:27:55.579Z,32.58
2023-01-29T22:30:24.017Z,35.40
2023-01-29T22:32:52.190Z,32.35
2023-01-29T22:35:21.461Z,37.67
2023-01-29T22:37:49.310Z,34.75
2023-01-29T22:40:17.696Z,34.72
2023-01-29T22:42:45.695Z,36.28
2023-01-29T22:45:13.690Z,37.08
2023-01-29T22:47:41.868Z,38.85
2023-01-29T22:50:10.903Z,34.80
2023-01-29T22:52:42.492Z,39.33
2023-01-29T22:55:11.956Z,38.47
2023-01-29T22:57:40.235Z,39.97
2023-01-29T23:00:11.744Z,40.70
2023-01-29T23:02:39.628Z,35.13
2023-01-29T23:05:08.576Z,35.35
2023-01-29T23:07:36.417Z,37.47
2023-01-29T23:10:07.228Z,43.97
2023-01-29T23:12:35.257Z,35.10
2023-01-29T23:15:03.098Z,37.53
2023-01-29T23:17:30.984Z,45.72
2023-01-29T23:19:59.003Z,40.20
2023-01-29T23:22:26.870Z,41.03
2023-01-29T23:24:54.708Z,41.22
2023-01-29T23:27:22.974Z,40.40
2023-01-29T23:29:50.823Z,37.80
2023-01-29T23:32:20.480Z,40.17
2023-01-29T23:34:48.712Z,39.85
2023-01-29T23:37:16.664Z,42.20
2023-01-29T23:39:44.502Z,41.97
2023-01-29T23:42:12.836Z,40.88
2023-01-29T23:44:42.353Z,39.58
2023-01-29T23:47:10.792Z,42.70
2023-01-29T23:49:38.661Z,40.13
